sensor_id;sensor_type;location;lat;lon;timestamp;P1;durP1;ratioP1;P2;durP2;ratioP2
32760;SDS011;19126;47.472;7.850;2022-09-06T00:01:22;13.18;;;6.40;;
32760;SDS011;19126;47.472;7.850;2022-09-06T00:03:49;12.30;;;8.25;;
32760;SDS011;19126;47.472;7.850;2022-09-06T00:06:17;15.93;;;6.35;;
32760;SDS011;19126;47.472;7.850;2022-09-06T00:08:45;11.75;;;6.20;;
32760;SDS011;19126;47.472;7.850;2022-09-06T00:11:14;6.90;;;6.18;;
32760;SDS011;19126;47.472;7.850;2022-09-06T00:13:42;11.93;;;6.30;;
32760;SDS011;19126;47.472;7.850;2022-09-06T00:16:11;14.93;;;6.95;;
32760;SDS011;19126;47.472;7.850;2022-09-06T00:18:42;10.43;;;6.78;;
32760;SDS011;19126;47.472;7.850;2022-09-06T00:21:13;16.73;;;7.25;;
32760;SDS011;19126;47.472;7.850;2022-09-06T00:23:43;15.57;;;6.65;;
32760;SDS011;19126;47.472;7.850;2022-09-06T00:26:10;11.35;;;6.35;;
32760;SDS011;19126;47.472;7.850;2022-09-06T00:28:38;12.98;;;6.43;;
32760;SDS011;19126;47.472;7.850;2022-09-06T00:31:07;8.32;;;6.50;;
32760;SDS011;19126;47.472;7.850;2022-09-06T00:33:35;17.67;;;7.22;;
32760;SDS011;19126;47.472;7.850;2022-09-06T00:36:04;11.70;;;7.18;;
32760;SDS011;19126;47.472;7.850;2022-09-06T00:38:32;15.95;;;6.93;;
32760;SDS011;19126;47.472;7.850;2022-09-06T00:40:59;13.40;;;7.47;;
32760;SDS011;19126;47.472;7.850;2022-09-06T00:43:27;10.55;;;7.70;;
32760;SDS011;19126;47.472;7.850;2022-09-06T00:45:54;14.88;;;7.05;;
32760;SDS011;19126;47.472;7.850;2022-09-06T00:48:22;13.18;;;7.20;;
32760;SDS011;19126;47.472;7.850;2022-09-06T00:50:51;13.35;;;6.72;;
32760;SDS011;19126;47.472;7.850;2022-09-06T00:53:25;16.80;;;7.53;;
32760;SDS011;19126;47.472;7.850;2022-09-06T00:55:53;18.23;;;7.55;;
32760;SDS011;19126;47.472;7.850;2022-09-06T00:58:20;9.52;;;7.70;;
32760;SDS011;19126;47.472;7.850;2022-09-06T01:00:48;10.85;;;7.05;;
32760;SDS011;19126;47.472;7.850;2022-09-06T01:03:16;10.10;;;6.90;;
32760;SDS011;19126;47.472;7.850;2022-09-06T01:05:49;11.00;;;6.97;;
32760;SDS011;19126;47.472;7.850;2022-09-06T01:08:30;12.07;;;7.05;;
32760;SDS011;19126;47.472;7.850;2022-09-06T01:11:15;14.30;;;7.70;;
32760;SDS011;19126;47.472;7.850;2022-09-06T01:14:04;10.27;;;7.25;;
32760;SDS011;19126;47.472;7.850;2022-09-06T01:16:45;13.85;;;7.18;;
32760;SDS011;19126;47.472;7.850;2022-09-06T01:22:55;20.17;;;6.25;;
32760;SDS011;19126;47.472;7.850;2022-09-06T01:26:46;13.20;;;6.28;;
32760;SDS011;19126;47.472;7.850;2022-09-06T01:30:02;17.30;;;7.00;;
32760;SDS011;19126;47.472;7.850;2022-09-06T01:32:34;10.70;;;6.88;;
32760;SDS011;19126;47.472;7.850;2022-09-06T01:35:14;12.68;;;6.95;;
32760;SDS011;19126;47.472;7.850;2022-09-06T01:37:50;17.38;;;7.40;;
32760;SDS011;19126;47.472;7.850;2022-09-06T01:40:17;11.77;;;7.60;;
32760;SDS011;19126;47.472;7.850;2022-09-06T01:42:45;12.15;;;6.82;;
32760;SDS011;19126;47.472;7.850;2022-09-06T01:45:16;26.70;;;6.50;;
32760;SDS011;19126;47.472;7.850;2022-09-06T01:47:52;15.65;;;6.70;;
32760;SDS011;19126;47.472;7.850;2022-09-06T01:50:33;16.80;;;7.05;;
32760;SDS011;19126;47.472;7.850;2022-09-06T01:53:21;13.05;;;6.20;;
32760;SDS011;19126;47.472;7.850;2022-09-06T01:56:08;14.60;;;7.32;;
32760;SDS011;19126;47.472;7.850;2022-09-06T01:58:51;12.05;;;6.75;;
32760;SDS011;19126;47.472;7.850;2022-09-06T02:01:34;7.43;;;5.82;;
32760;SDS011;19126;47.472;7.850;2022-09-06T02:04:10;9.38;;;7.35;;
32760;SDS011;19126;47.472;7.850;2022-09-06T02:06:46;14.88;;;6.90;;
32760;SDS011;19126;47.472;7.850;2022-09-06T02:09:21;16.60;;;7.82;;
32760;SDS011;19126;47.472;7.850;2022-09-06T02:11:52;16.45;;;7.85;;
32760;SDS011;19126;47.472;7.850;2022-09-06T02:14:24;10.07;;;6.82;;
32760;SDS011;19126;47.472;7.850;2022-09-06T02:17:00;16.85;;;7.78;;
32760;SDS011;19126;47.472;7.850;2022-09-06T02:19:30;11.03;;;7.73;;
32760;SDS011;19126;47.472;7.850;2022-09-06T02:22:03;8.95;;;6.70;;
32760;SDS011;19126;47.472;7.850;2022-09-06T02:24:35;7.38;;;6.28;;
32760;SDS011;19126;47.472;7.850;2022-09-06T02:27:04;13.55;;;7.15;;
32760;SDS011;19126;47.472;7.850;2022-09-06T02:29:32;10.82;;;7.10;;
32760;SDS011;19126;47.472;7.850;2022-09-06T02:32:02;15.32;;;7.80;;
32760;SDS011;19126;47.472;7.850;2022-09-06T02:34:35;15.05;;;7.78;;
32760;SDS011;19126;47.472;7.850;2022-09-06T02:37:03;13.77;;;6.50;;
32760;SDS011;19126;47.472;7.850;2022-09-06T02:39:31;11.88;;;6.88;;
32760;SDS011;19126;47.472;7.850;2022-09-06T02:41:58;10.43;;;6.32;;
32760;SDS011;19126;47.472;7.850;2022-09-06T02:44:27;11.18;;;6.38;;
32760;SDS011;19126;47.472;7.850;2022-09-06T02:46:54;12.13;;;6.45;;
32760;SDS011;19126;47.472;7.850;2022-09-06T02:49:22;11.48;;;7.22;;
32760;SDS011;19126;47.472;7.850;2022-09-06T02:51:49;14.25;;;7.25;;
32760;SDS011;19126;47.472;7.850;2022-09-06T02:54:16;11.00;;;6.72;;
32760;SDS011;19126;47.472;7.850;2022-09-06T02:56:44;11.07;;;7.15;;
32760;SDS011;19126;47.472;7.850;2022-09-06T02:59:11;10.27;;;6.72;;
32760;SDS011;19126;47.472;7.850;2022-09-06T03:01:38;14.25;;;7.72;;
32760;SDS011;19126;47.472;7.850;2022-09-06T03:04:05;13.18;;;6.75;;
32760;SDS011;19126;47.472;7.850;2022-09-06T03:06:34;8.10;;;6.80;;
32760;SDS011;19126;47.472;7.850;2022-09-06T03:09:01;10.70;;;6.85;;
32760;SDS011;19126;47.472;7.850;2022-09-06T03:11:28;17.13;;;7.20;;
32760;SDS011;19126;47.472;7.850;2022-09-06T03:13:55;10.50;;;7.18;;
32760;SDS011;19126;47.472;7.850;2022-09-06T03:16:23;11.90;;;8.10;;
32760;SDS011;19126;47.472;7.850;2022-09-06T03:18:50;11.68;;;6.50;;
32760;SDS011;19126;47.472;7.850;2022-09-06T03:21:17;14.60;;;6.45;;
32760;SDS011;19126;47.472;7.850;2022-09-06T03:23:45;11.68;;;6.68;;
32760;SDS011;19126;47.472;7.850;2022-09-06T03:26:13;11.40;;;6.78;;
32760;SDS011;19126;47.472;7.850;2022-09-06T03:28:40;8.05;;;5.90;;
32760;SDS011;19126;47.472;7.850;2022-09-06T03:31:08;14.13;;;6.85;;
32760;SDS011;19126;47.472;7.850;2022-09-06T03:33:35;13.48;;;6.80;;
32760;SDS011;19126;47.472;7.850;2022-09-06T03:36:03;11.10;;;7.25;;
32760;SDS011;19126;47.472;7.850;2022-09-06T03:38:30;13.05;;;6.65;;
32760;SDS011;19126;47.472;7.850;2022-09-06T03:40:59;14.95;;;7.03;;
32760;SDS011;19126;47.472;7.850;2022-09-06T03:43:26;19.13;;;7.45;;
32760;SDS011;19126;47.472;7.850;2022-09-06T03:45:55;25.90;;;7.45;;
32760;SDS011;19126;47.472;7.850;2022-09-06T03:48:23;10.07;;;6.72;;
32760;SDS011;19126;47.472;7.850;2022-09-06T03:50:55;13.07;;;6.70;;
32760;SDS011;19126;47.472;7.850;2022-09-06T03:53:24;22.05;;;7.30;;
32760;SDS011;19126;47.472;7.850;2022-09-06T03:55:53;9.68;;;7.38;;
32760;SDS011;19126;47.472;7.850;2022-09-06T03:58:27;14.25;;;7.40;;
32760;SDS011;19126;47.472;7.850;2022-09-06T04:00:59;13.98;;;7.85;;
32760;SDS011;19126;47.472;7.850;2022-09-06T04:03:31;14.80;;;6.60;;
32760;SDS011;19126;47.472;7.850;2022-09-06T04:05:59;12.27;;;7.15;;
32760;SDS011;19126;47.472;7.850;2022-09-06T04:08:26;13.38;;;7.53;;
32760;SDS011;19126;47.472;7.850;2022-09-06T04:10:54;13.10;;;8.18;;
32760;SDS011;19126;47.472;7.850;2022-09-06T04:13:24;10.13;;;6.82;;
32760;SDS011;19126;47.472;7.850;2022-09-06T04:15:52;20.08;;;7.93;;
32760;SDS011;19126;47.472;7.850;2022-09-06T04:18:20;12.00;;;7.05;;
32760;SDS011;19126;47.472;7.850;2022-09-06T04:20:47;9.00;;;6.25;;
32760;SDS011;19126;47.472;7.850;2022-09-06T04:23:15;10.10;;;7.18;;
32760;SDS011;19126;47.472;7.850;2022-09-06T04:25:44;16.50;;;8.43;;
32760;SDS011;19126;47.472;7.850;2022-09-06T04:28:12;17.38;;;7.40;;
32760;SDS011;19126;47.472;7.850;2022-09-06T04:30:41;18.02;;;7.95;;
32760;SDS011;19126;47.472;7.850;2022-09-06T04:33:08;9.88;;;7.22;;
32760;SDS011;19126;47.472;7.850;2022-09-06T04:35:35;13.88;;;7.07;;
32760;SDS011;19126;47.472;7.850;2022-09-06T04:38:02;15.70;;;7.82;;
32760;SDS011;19126;47.472;7.850;2022-09-06T04:40:30;9.77;;;6.40;;
32760;SDS011;19126;47.472;7.850;2022-09-06T04:42:57;14.50;;;7.72;;
32760;SDS011;19126;47.472;7.850;2022-09-06T04:45:24;11.32;;;8.05;;
32760;SDS011;19126;47.472;7.850;2022-09-06T04:47:52;14.65;;;8.32;;
32760;SDS011;19126;47.472;7.850;2022-09-06T04:50:20;20.42;;;7.43;;
32760;SDS011;19126;47.472;7.850;2022-09-06T04:52:47;12.15;;;8.07;;
32760;SDS011;19126;47.472;7.850;2022-09-06T04:55:14;11.82;;;7.15;;
32760;SDS011;19126;47.472;7.850;2022-09-06T04:57:41;13.52;;;7.93;;
32760;SDS011;19126;47.472;7.850;2022-09-06T05:00:09;13.90;;;7.75;;
32760;SDS011;19126;47.472;7.850;2022-09-06T05:02:37;13.13;;;7.18;;
32760;SDS011;19126;47.472;7.850;2022-09-06T05:05:05;15.73;;;8.63;;
32760;SDS011;19126;47.472;7.850;2022-09-06T05:07:33;16.98;;;7.32;;
32760;SDS011;19126;47.472;7.850;2022-09-06T05:10:00;16.40;;;8.15;;
32760;SDS011;19126;47.472;7.850;2022-09-06T05:12:28;15.93;;;7.50;;
32760;SDS011;19126;47.472;7.850;2022-09-06T05:14:55;13.38;;;8.13;;
32760;SDS011;19126;47.472;7.850;2022-09-06T05:17:22;12.07;;;8.18;;
32760;SDS011;19126;47.472;7.850;2022-09-06T05:19:49;12.57;;;7.28;;
32760;SDS011;19126;47.472;7.850;2022-09-06T05:22:18;18.85;;;8.45;;
32760;SDS011;19126;47.472;7.850;2022-09-06T05:24:45;18.45;;;7.82;;
32760;SDS011;19126;47.472;7.850;2022-09-06T05:27:12;18.67;;;8.13;;
32760;SDS011;19126;47.472;7.850;2022-09-06T05:29:39;18.50;;;9.23;;
32760;SDS011;19126;47.472;7.850;2022-09-06T05:32:06;12.05;;;7.82;;
32760;SDS011;19126;47.472;7.850;2022-09-06T05:34:33;18.20;;;8.48;;
32760;SDS011;19126;47.472;7.850;2022-09-06T05:37:00;14.07;;;8.75;;
32760;SDS011;19126;47.472;7.850;2022-09-06T05:39:29;13.43;;;7.95;;
32760;SDS011;19126;47.472;7.850;2022-09-06T05:41:56;22.70;;;9.55;;
32760;SDS011;19126;47.472;7.850;2022-09-06T05:44:24;20.77;;;11.13;;
32760;SDS011;19126;47.472;7.850;2022-09-06T05:46:51;16.95;;;9.15;;
32760;SDS011;19126;47.472;7.850;2022-09-06T05:49:18;19.60;;;9.55;;
32760;SDS011;19126;47.472;7.850;2022-09-06T05:51:48;20.15;;;10.43;;
32760;SDS011;19126;47.472;7.850;2022-09-06T05:54:16;19.45;;;9.43;;
32760;SDS011;19126;47.472;7.850;2022-09-06T05:56:45;16.25;;;8.52;;
32760;SDS011;19126;47.472;7.850;2022-09-06T05:59:12;16.95;;;8.13;;
32760;SDS011;19126;47.472;7.850;2022-09-06T06:01:45;15.80;;;8.57;;
32760;SDS011;19126;47.472;7.850;2022-09-06T06:04:14;17.35;;;8.75;;
32760;SDS011;19126;47.472;7.850;2022-09-06T06:06:42;17.00;;;8.35;;
32760;SDS011;19126;47.472;7.850;2022-09-06T06:09:11;10.93;;;7.68;;
32760;SDS011;19126;47.472;7.850;2022-09-06T06:11:38;19.63;;;9.77;;
32760;SDS011;19126;47.472;7.850;2022-09-06T06:14:07;19.25;;;9.30;;
32760;SDS011;19126;47.472;7.850;2022-09-06T06:16:35;29.50;;;8.57;;
32760;SDS011;19126;47.472;7.850;2022-09-06T06:19:02;14.70;;;9.18;;
32760;SDS011;19126;47.472;7.850;2022-09-06T06:21:30;11.82;;;8.48;;
32760;SDS011;19126;47.472;7.850;2022-09-06T06:23:59;19.25;;;9.00;;
32760;SDS011;19126;47.472;7.850;2022-09-06T06:26:29;18.90;;;9.18;;
32760;SDS011;19126;47.472;7.850;2022-09-06T06:28:58;14.85;;;10.48;;
32760;SDS011;19126;47.472;7.850;2022-09-06T06:31:28;16.05;;;8.57;;
32760;SDS011;19126;47.472;7.850;2022-09-06T06:33:57;19.73;;;8.98;;
32760;SDS011;19126;47.472;7.850;2022-09-06T06:36:27;15.02;;;8.05;;
32760;SDS011;19126;47.472;7.850;2022-09-06T06:38:56;15.32;;;9.02;;
32760;SDS011;19126;47.472;7.850;2022-09-06T06:41:24;18.23;;;9.00;;
32760;SDS011;19126;47.472;7.850;2022-09-06T06:43:54;16.02;;;8.18;;
32760;SDS011;19126;47.472;7.850;2022-09-06T06:46:25;23.08;;;9.25;;
32760;SDS011;19126;47.472;7.850;2022-09-06T06:48:55;12.73;;;8.40;;
32760;SDS011;19126;47.472;7.850;2022-09-06T06:51:23;10.57;;;8.25;;
32760;SDS011;19126;47.472;7.850;2022-09-06T06:53:52;17.73;;;8.30;;
32760;SDS011;19126;47.472;7.850;2022-09-06T06:56:21;19.67;;;10.00;;
32760;SDS011;19126;47.472;7.850;2022-09-06T06:58:51;15.10;;;8.63;;
32760;SDS011;19126;47.472;7.850;2022-09-06T07:01:21;23.98;;;8.55;;
32760;SDS011;19126;47.472;7.850;2022-09-06T07:03:51;26.20;;;8.23;;
32760;SDS011;19126;47.472;7.850;2022-09-06T07:06:19;23.92;;;8.95;;
32760;SDS011;19126;47.472;7.850;2022-09-06T07:08:47;25.90;;;9.55;;
32760;SDS011;19126;47.472;7.850;2022-09-06T07:11:15;19.83;;;8.70;;
32760;SDS011;19126;47.472;7.850;2022-09-06T07:13:43;18.35;;;8.88;;
32760;SDS011;19126;47.472;7.850;2022-09-06T07:16:11;30.88;;;10.05;;
32760;SDS011;19126;47.472;7.850;2022-09-06T07:18:40;38.17;;;10.30;;
32760;SDS011;19126;47.472;7.850;2022-09-06T07:21:11;32.30;;;10.13;;
32760;SDS011;19126;47.472;7.850;2022-09-06T07:23:40;25.88;;;10.32;;
32760;SDS011;19126;47.472;7.850;2022-09-06T07:26:12;27.35;;;11.57;;
32760;SDS011;19126;47.472;7.850;2022-09-06T07:28:40;26.27;;;11.18;;
32760;SDS011;19126;47.472;7.850;2022-09-06T07:31:08;33.88;;;11.02;;
32760;SDS011;19126;47.472;7.850;2022-09-06T07:33:35;26.10;;;10.80;;
32760;SDS011;19126;47.472;7.850;2022-09-06T07:36:05;28.08;;;10.10;;
32760;SDS011;19126;47.472;7.850;2022-09-06T07:38:35;23.75;;;10.55;;
32760;SDS011;19126;47.472;7.850;2022-09-06T07:41:03;30.20;;;10.80;;
32760;SDS011;19126;47.472;7.850;2022-09-06T07:43:31;30.10;;;12.23;;
32760;SDS011;19126;47.472;7.850;2022-09-06T07:45:59;27.67;;;11.93;;
32760;SDS011;19126;47.472;7.850;2022-09-06T07:48:27;28.52;;;12.25;;
32760;SDS011;19126;47.472;7.850;2022-09-06T07:51:01;26.67;;;12.77;;
32760;SDS011;19126;47.472;7.850;2022-09-06T07:53:30;24.55;;;12.23;;
32760;SDS011;19126;47.472;7.850;2022-09-06T07:56:00;30.15;;;10.65;;
32760;SDS011;19126;47.472;7.850;2022-09-06T07:58:29;20.08;;;9.35;;
32760;SDS011;19126;47.472;7.850;2022-09-06T08:01:13;19.05;;;10.07;;
32760;SDS011;19126;47.472;7.850;2022-09-06T08:03:55;26.77;;;10.30;;
32760;SDS011;19126;47.472;7.850;2022-09-06T08:06:23;19.38;;;10.23;;
32760;SDS011;19126;47.472;7.850;2022-09-06T08:08:52;23.88;;;9.82;;
32760;SDS011;19126;47.472;7.850;2022-09-06T08:11:21;21.30;;;10.30;;
32760;SDS011;19126;47.472;7.850;2022-09-06T08:13:50;21.35;;;11.13;;
32760;SDS011;19126;47.472;7.850;2022-09-06T08:16:20;18.27;;;11.68;;
32760;SDS011;19126;47.472;7.850;2022-09-06T08:18:48;20.83;;;9.88;;
32760;SDS011;19126;47.472;7.850;2022-09-06T08:21:17;27.85;;;10.45;;
32760;SDS011;19126;47.472;7.850;2022-09-06T08:23:48;19.50;;;8.90;;
32760;SDS011;19126;47.472;7.850;2022-09-06T08:26:17;31.45;;;10.77;;
32760;SDS011;19126;47.472;7.850;2022-09-06T08:28:51;27.95;;;9.25;;
32760;SDS011;19126;47.472;7.850;2022-09-06T08:31:20;29.25;;;8.63;;
32760;SDS011;19126;47.472;7.850;2022-09-06T08:33:47;22.73;;;7.22;;
32760;SDS011;19126;47.472;7.850;2022-09-06T08:36:14;18.60;;;7.00;;
32760;SDS011;19126;47.472;7.850;2022-09-06T08:38:41;24.40;;;7.15;;
32760;SDS011;19126;47.472;7.850;2022-09-06T08:41:10;23.15;;;7.95;;
32760;SDS011;19126;47.472;7.850;2022-09-06T08:43:51;23.35;;;8.00;;
32760;SDS011;19126;47.472;7.850;2022-09-06T08:46:21;19.70;;;7.90;;
32760;SDS011;19126;47.472;7.850;2022-09-06T08:48:55;21.77;;;6.82;;
32760;SDS011;19126;47.472;7.850;2022-09-06T08:51:45;19.25;;;6.88;;
32760;SDS011;19126;47.472;7.850;2022-09-06T08:54:49;19.05;;;7.60;;
32760;SDS011;19126;47.472;7.850;2022-09-06T08:57:52;26.38;;;6.93;;
32760;SDS011;19126;47.472;7.850;2022-09-06T09:00:30;18.92;;;5.88;;
32760;SDS011;19126;47.472;7.850;2022-09-06T09:03:02;23.25;;;5.13;;
32760;SDS011;19126;47.472;7.850;2022-09-06T09:05:35;18.17;;;5.65;;
32760;SDS011;19126;47.472;7.850;2022-09-06T09:08:06;17.42;;;4.85;;
32760;SDS011;19126;47.472;7.850;2022-09-06T09:10:41;28.65;;;5.30;;
32760;SDS011;19126;47.472;7.850;2022-09-06T09:13:19;18.40;;;4.93;;
32760;SDS011;19126;47.472;7.850;2022-09-06T09:15:54;18.75;;;4.47;;
32760;SDS011;19126;47.472;7.850;2022-09-06T09:18:21;11.70;;;4.55;;
32760;SDS011;19126;47.472;7.850;2022-09-06T09:20:52;12.47;;;5.00;;
32760;SDS011;19126;47.472;7.850;2022-09-06T09:23:19;15.25;;;4.05;;
32760;SDS011;19126;47.472;7.850;2022-09-06T09:25:46;19.13;;;5.13;;
32760;SDS011;19126;47.472;7.850;2022-09-06T09:28:17;12.85;;;4.00;;
32760;SDS011;19126;47.472;7.850;2022-09-06T09:30:48;14.50;;;3.60;;
32760;SDS011;19126;47.472;7.850;2022-09-06T09:33:23;15.73;;;4.15;;
32760;SDS011;19126;47.472;7.850;2022-09-06T09:35:54;18.92;;;3.20;;
32760;SDS011;19126;47.472;7.850;2022-09-06T09:38:25;14.43;;;3.30;;
32760;SDS011;19126;47.472;7.850;2022-09-06T09:40:55;11.88;;;3.22;;
32760;SDS011;19126;47.472;7.850;2022-09-06T09:43:25;10.77;;;3.25;;
32760;SDS011;19126;47.472;7.850;2022-09-06T09:48:45;16.25;;;3.47;;
32760;SDS011;19126;47.472;7.850;2022-09-06T09:51:27;15.30;;;3.47;;
32760;SDS011;19126;47.472;7.850;2022-09-06T09:53:58;17.95;;;4.10;;
32760;SDS011;19126;47.472;7.850;2022-09-06T09:56:31;20.98;;;4.28;;
32760;SDS011;19126;47.472;7.850;2022-09-06T09:59:14;15.77;;;3.75;;
32760;SDS011;19126;47.472;7.850;2022-09-06T10:01:54;22.95;;;3.67;;
32760;SDS011;19126;47.472;7.850;2022-09-06T10:04:28;18.35;;;3.95;;
32760;SDS011;19126;47.472;7.850;2022-09-06T10:07:08;13.02;;;3.53;;
32760;SDS011;19126;47.472;7.850;2022-09-06T10:09:38;19.55;;;4.07;;
32760;SDS011;19126;47.472;7.850;2022-09-06T10:12:12;17.60;;;4.00;;
32760;SDS011;19126;47.472;7.850;2022-09-06T10:14:44;20.35;;;4.00;;
32760;SDS011;19126;47.472;7.850;2022-09-06T10:17:18;13.15;;;3.80;;
32760;SDS011;19126;47.472;7.850;2022-09-06T10:19:56;19.00;;;4.70;;
32760;SDS011;19126;47.472;7.850;2022-09-06T10:22:29;9.95;;;2.80;;
32760;SDS011;19126;47.472;7.850;2022-09-06T10:34:32;18.13;;;3.00;;
32760;SDS011;19126;47.472;7.850;2022-09-06T10:37:22;16.60;;;2.60;;
32760;SDS011;19126;47.472;7.850;2022-09-06T10:40:06;16.98;;;3.65;;
32760;SDS011;19126;47.472;7.850;2022-09-06T10:42:38;17.73;;;3.15;;
32760;SDS011;19126;47.472;7.850;2022-09-06T10:45:23;15.90;;;2.83;;
32760;SDS011;19126;47.472;7.850;2022-09-06T10:48:01;16.63;;;3.15;;
32760;SDS011;19126;47.472;7.850;2022-09-06T10:50:36;13.55;;;3.30;;
32760;SDS011;19126;47.472;7.850;2022-09-06T10:53:15;11.63;;;2.80;;
32760;SDS011;19126;47.472;7.850;2022-09-06T10:56:05;15.32;;;3.35;;
32760;SDS011;19126;47.472;7.850;2022-09-06T10:58:45;15.73;;;3.45;;
32760;SDS011;19126;47.472;7.850;2022-09-06T11:01:21;7.35;;;2.75;;
32760;SDS011;19126;47.472;7.850;2022-09-06T11:03:58;23.55;;;3.25;;
32760;SDS011;19126;47.472;7.850;2022-09-06T11:06:27;16.08;;;3.42;;
32760;SDS011;19126;47.472;7.850;2022-09-06T11:09:06;12.15;;;3.20;;
32760;SDS011;19126;47.472;7.850;2022-09-06T11:11:43;9.43;;;2.92;;
32760;SDS011;19126;47.472;7.850;2022-09-06T11:14:14;16.02;;;3.13;;
32760;SDS011;19126;47.472;7.850;2022-09-06T11:16:45;11.23;;;3.38;;
32760;SDS011;19126;47.472;7.850;2022-09-06T11:19:18;11.75;;;3.35;;
32760;SDS011;19126;47.472;7.850;2022-09-06T11:28:39;19.75;;;5.43;;
32760;SDS011;19126;47.472;7.850;2022-09-06T11:31:12;22.52;;;6.15;;
32760;SDS011;19126;47.472;7.850;2022-09-06T11:33:47;31.90;;;7.00;;
32760;SDS011;19126;47.472;7.850;2022-09-06T11:36:18;15.35;;;6.85;;
32760;SDS011;19126;47.472;7.850;2022-09-06T11:38:58;22.75;;;7.28;;
32760;SDS011;19126;47.472;7.850;2022-09-06T11:41:30;28.53;;;8.50;;
32760;SDS011;19126;47.472;7.850;2022-09-06T11:44:01;32.13;;;8.52;;
32760;SDS011;19126;47.472;7.850;2022-09-06T11:46:55;21.40;;;5.25;;
32760;SDS011;19126;47.472;7.850;2022-09-06T11:49:32;21.13;;;5.07;;
32760;SDS011;19126;47.472;7.850;2022-09-06T11:55:17;16.55;;;4.05;;
32760;SDS011;19126;47.472;7.850;2022-09-06T11:57:52;11.77;;;3.90;;
32760;SDS011;19126;47.472;7.850;2022-09-06T12:00:23;10.23;;;3.95;;
32760;SDS011;19126;47.472;7.850;2022-09-06T12:02:51;13.85;;;3.80;;
32760;SDS011;19126;47.472;7.850;2022-09-06T12:05:22;13.13;;;3.63;;
32760;SDS011;19126;47.472;7.850;2022-09-06T12:08:12;16.98;;;4.03;;
32760;SDS011;19126;47.472;7.850;2022-09-06T12:11:03;13.50;;;4.10;;
32760;SDS011;19126;47.472;7.850;2022-09-06T12:13:53;16.03;;;3.73;;
32760;SDS011;19126;47.472;7.850;2022-09-06T12:16:24;16.35;;;4.72;;
32760;SDS011;19126;47.472;7.850;2022-09-06T12:28:26;12.63;;;5.05;;
32760;SDS011;19126;47.472;7.850;2022-09-06T12:34:07;11.38;;;4.28;;
32760;SDS011;19126;47.472;7.850;2022-09-06T12:39:32;10.23;;;3.85;;
32760;SDS011;19126;47.472;7.850;2022-09-06T12:42:00;15.70;;;3.90;;
32760;SDS011;19126;47.472;7.850;2022-09-06T12:44:31;9.15;;;4.05;;
32760;SDS011;19126;47.472;7.850;2022-09-06T12:47:05;7.97;;;3.60;;
32760;SDS011;19126;47.472;7.850;2022-09-06T12:49:39;12.48;;;3.85;;
32760;SDS011;19126;47.472;7.850;2022-09-06T12:52:07;16.63;;;3.90;;
32760;SDS011;19126;47.472;7.850;2022-09-06T12:54:45;7.80;;;3.03;;
32760;SDS011;19126;47.472;7.850;2022-09-06T12:57:17;12.10;;;3.35;;
32760;SDS011;19126;47.472;7.850;2022-09-06T13:02:20;9.13;;;3.20;;
32760;SDS011;19126;47.472;7.850;2022-09-06T13:04:59;7.95;;;3.38;;
32760;SDS011;19126;47.472;7.850;2022-09-06T13:07:30;13.25;;;4.03;;
32760;SDS011;19126;47.472;7.850;2022-09-06T13:10:00;10.05;;;3.45;;
32760;SDS011;19126;47.472;7.850;2022-09-06T13:12:30;11.68;;;3.63;;
32760;SDS011;19126;47.472;7.850;2022-09-06T13:15:01;13.73;;;3.60;;
32760;SDS011;19126;47.472;7.850;2022-09-06T13:17:37;7.70;;;3.65;;
32760;SDS011;19126;47.472;7.850;2022-09-06T13:20:11;9.48;;;3.67;;
32760;SDS011;19126;47.472;7.850;2022-09-06T13:22:42;13.13;;;3.88;;
32760;SDS011;19126;47.472;7.850;2022-09-06T13:25:12;11.07;;;4.60;;
32760;SDS011;19126;47.472;7.850;2022-09-06T13:27:42;18.35;;;4.88;;
32760;SDS011;19126;47.472;7.850;2022-09-06T13:30:30;12.85;;;4.38;;
32760;SDS011;19126;47.472;7.850;2022-09-06T13:33:02;13.00;;;3.65;;
32760;SDS011;19126;47.472;7.850;2022-09-06T13:35:32;12.23;;;3.47;;
32760;SDS011;19126;47.472;7.850;2022-09-06T13:38:19;11.27;;;3.38;;
32760;SDS011;19126;47.472;7.850;2022-09-06T13:40:54;16.75;;;3.38;;
32760;SDS011;19126;47.472;7.850;2022-09-06T13:43:22;7.72;;;2.90;;
32760;SDS011;19126;47.472;7.850;2022-09-06T13:45:58;8.40;;;2.67;;
32760;SDS011;19126;47.472;7.850;2022-09-06T13:48:33;8.75;;;3.03;;
32760;SDS011;19126;47.472;7.850;2022-09-06T13:51:02;10.32;;;2.60;;
32760;SDS011;19126;47.472;7.850;2022-09-06T13:53:30;7.63;;;2.60;;
32760;SDS011;19126;47.472;7.850;2022-09-06T13:55:58;14.23;;;2.25;;
32760;SDS011;19126;47.472;7.850;2022-09-06T13:58:25;13.80;;;2.65;;
32760;SDS011;19126;47.472;7.850;2022-09-06T14:00:53;10.55;;;2.45;;
32760;SDS011;19126;47.472;7.850;2022-09-06T14:03:21;10.93;;;2.65;;
32760;SDS011;19126;47.472;7.850;2022-09-06T14:05:53;4.53;;;1.90;;
32760;SDS011;19126;47.472;7.850;2022-09-06T14:08:21;7.72;;;2.35;;
32760;SDS011;19126;47.472;7.850;2022-09-06T14:10:48;11.80;;;2.88;;
32760;SDS011;19126;47.472;7.850;2022-09-06T14:13:17;12.48;;;2.42;;
32760;SDS011;19126;47.472;7.850;2022-09-06T14:15:45;8.27;;;2.20;;
32760;SDS011;19126;47.472;7.850;2022-09-06T14:18:14;9.02;;;2.05;;
32760;SDS011;19126;47.472;7.850;2022-09-06T14:20:49;3.85;;;1.92;;
32760;SDS011;19126;47.472;7.850;2022-09-06T14:23:18;5.68;;;2.30;;
32760;SDS011;19126;47.472;7.850;2022-09-06T14:25:47;10.35;;;2.10;;
32760;SDS011;19126;47.472;7.850;2022-09-06T14:28:14;8.05;;;2.42;;
32760;SDS011;19126;47.472;7.850;2022-09-06T14:30:41;7.10;;;2.35;;
32760;SDS011;19126;47.472;7.850;2022-09-06T14:33:08;5.82;;;2.15;;
32760;SDS011;19126;47.472;7.850;2022-09-06T14:35:36;11.85;;;2.75;;
32760;SDS011;19126;47.472;7.850;2022-09-06T14:38:05;9.93;;;2.80;;
32760;SDS011;19126;47.472;7.850;2022-09-06T14:40:34;7.00;;;2.42;;
32760;SDS011;19126;47.472;7.850;2022-09-06T14:43:05;11.80;;;2.60;;
32760;SDS011;19126;47.472;7.850;2022-09-06T14:45:33;14.38;;;2.10;;
32760;SDS011;19126;47.472;7.850;2022-09-06T14:48:00;16.38;;;2.78;;
32760;SDS011;19126;47.472;7.850;2022-09-06T14:50:29;10.07;;;2.30;;
32760;SDS011;19126;47.472;7.850;2022-09-06T14:52:56;7.75;;;2.40;;
32760;SDS011;19126;47.472;7.850;2022-09-06T14:55:24;8.50;;;3.13;;
32760;SDS011;19126;47.472;7.850;2022-09-06T14:57:53;9.98;;;3.20;;
32760;SDS011;19126;47.472;7.850;2022-09-06T15:00:20;11.35;;;3.75;;
32760;SDS011;19126;47.472;7.850;2022-09-06T15:02:47;11.15;;;3.58;;
32760;SDS011;19126;47.472;7.850;2022-09-06T15:05:14;11.45;;;3.67;;
32760;SDS011;19126;47.472;7.850;2022-09-06T15:07:42;10.40;;;3.35;;
32760;SDS011;19126;47.472;7.850;2022-09-06T15:10:09;7.95;;;3.08;;
32760;SDS011;19126;47.472;7.850;2022-09-06T15:12:36;12.18;;;3.00;;
32760;SDS011;19126;47.472;7.850;2022-09-06T15:15:05;15.15;;;3.55;;
32760;SDS011;19126;47.472;7.850;2022-09-06T15:17:33;13.73;;;3.42;;
32760;SDS011;19126;47.472;7.850;2022-09-06T15:20:00;14.77;;;3.05;;
32760;SDS011;19126;47.472;7.850;2022-09-06T15:22:29;18.50;;;3.00;;
32760;SDS011;19126;47.472;7.850;2022-09-06T15:24:56;9.25;;;3.20;;
32760;SDS011;19126;47.472;7.850;2022-09-06T15:27:23;11.38;;;3.42;;
32760;SDS011;19126;47.472;7.850;2022-09-06T15:29:50;10.23;;;2.65;;
32760;SDS011;19126;47.472;7.850;2022-09-06T15:32:19;15.77;;;2.95;;
32760;SDS011;19126;47.472;7.850;2022-09-06T15:34:46;8.73;;;2.85;;
32760;SDS011;19126;47.472;7.850;2022-09-06T15:37:13;11.25;;;2.75;;
32760;SDS011;19126;47.472;7.850;2022-09-06T15:39:40;12.52;;;2.80;;
32760;SDS011;19126;47.472;7.850;2022-09-06T15:42:07;5.07;;;2.45;;
32760;SDS011;19126;47.472;7.850;2022-09-06T15:44:35;7.43;;;2.22;;